Latest Weather Observations for Coconut Island

IDQ60801

Issued at 9:42 pm EST Friday 26 April 2019 (issued every 10 minutes, with the page automatically refreshed every 10 minutes)

About weather observations | Map of weather stations | Latest weather observations for QLD | Other Formats
Station Details ID: 027054 Name: COCONUT ISLAND Lat: -10.05 Lon: 143.07 Height: 3.5 m
Data from the previous 72 hours. | See also: Recent months at Coconut Island
Date/Time
EST
Temp
°C
App
Temp
°C
Dew
Point
°C
Rel
Hum
%
Delta-T
°C
Wind Press
QNH
hPa
Press
MSL
hPa
Rain since
9am
mm
Dir  Spd
km/h
Gust
km/h
Spd
kts
Gust
kts
26/09:30pm 28.1 - - - - SSE 6 9 3 5 1009.0 1008.9 0.0
26/09:00pm 28.2 - - - - SSE 6 11 3 6 1008.6 1008.5 0.0
26/08:30pm 28.4 - - - - SSE 4 9 2 5 1008.5 1008.4 0.0
26/08:00pm 28.3 - - - - SSE 6 9 3 5 1008.2 1008.1 0.0
26/07:30pm 28.4 - - - - SSE 6 9 3 5 1007.8 1007.7 0.0
26/07:00pm 28.5 - - - - SSE 6 9 3 5 1007.5 1007.4 0.0
26/06:30pm 28.6 - - - - SSE 6 9 3 5 1007.1 1007.0 0.0
26/06:00pm 29.0 - - - - SSE 6 9 3 5 1006.7 1006.6 0.0
26/05:30pm 29.3 - - - - SSE 4 7 2 4 1006.5 1006.4 0.0
26/05:00pm 29.7 - - - - SSE 4 7 2 4 1006.0 1005.9 0.0
26/04:30pm 30.4 - - - - SSE 6 9 3 5 1005.6 1005.5 0.0
26/04:00pm 30.3 - - - - SSE 6 9 3 5 1005.5 1005.4 0.0
26/03:30pm 30.3 - - - - SSE 6 9 3 5 1005.7 1005.6 0.0
26/03:00pm 31.4 - - - - SSE 6 9 3 5 1005.8 1005.7 0.0
26/02:30pm 32.1 - - - - SSE 6 9 3 5 1006.0 1005.9 0.0
26/02:00pm 33.6 - - - - SSE 4 7 2 4 1006.4 1006.3 0.0
26/01:30pm 33.6 - - - - SSE 4 9 2 5 1006.8 1006.7 0.0
26/01:00pm 35.0 - - - - SSE 4 7 2 4 1007.1 1007.0 0.0
26/12:30pm 34.2 - - - - SSE 4 9 2 5 1007.4 1007.3 0.0
26/12:00pm 34.2 - - - - SSE 4 7 2 4 1007.8 1007.7 0.0
26/11:30am 33.7 - - - - SE 4 7 2 4 1008.4 1008.3 0.0
26/11:00am 33.8 - - - - SSE 4 9 2 5 1009.0 1008.9 0.0
26/10:30am 33.4 - - - - SSE 4 7 2 4 1009.2 1009.1 0.0
26/10:00am 31.6 - - - - SSE 4 9 2 5 1009.4 1009.3 0.0
26/09:30am 29.5 - - - - SSE 6 9 3 5 1009.3 1009.2 0.0
26/09:00am 29.4 - - - - SSE 4 7 2 4 1009.1 1009.0 2.2
26/08:30am 29.7 - - - - SSE 6 9 3 5 1008.8 1008.7 2.2
26/08:00am 28.0 - - - - SSE 4 7 2 4 1008.9 1008.8 2.2
26/07:30am 28.0 - - - - SSE 4 6 2 3 1008.5 1008.4 2.2
26/07:00am 27.4 - - - - SSE 4 9 2 5 1007.8 1007.7 2.2
26/06:30am 27.1 - - - - SSE 4 13 2 7 1007.6 1007.5 2.2
26/06:00am 27.2 - - - - SSE 6 9 3 5 1007.3 1007.2 2.2
26/05:30am 27.3 - - - - SSE 6 9 3 5 1007.2 1007.1 2.2
26/05:00am 27.4 - - - - SSE 6 11 3 6 1007.0 1006.9 2.2
26/04:30am 27.3 - - - - SSE 6 9 3 5 1006.9 1006.8 2.2
26/04:00am 27.1 - - - - SSE 6 9 3 5 1006.9 1006.8 2.2
26/03:30am 27.2 - - - - SSE 6 7 3 4 1007.2 1007.1 2.2
26/03:00am 27.1 - - - - SSE 6 7 3 4 1007.5 1007.4 2.0
26/02:30am 27.1 - - - - SSE 6 9 3 5 1007.4 1007.3 2.0
26/02:00am 27.2 - - - - SSE 6 7 3 4 1007.7 1007.6 1.8
26/01:30am 27.1 - - - - SE 4 9 2 5 1007.8 1007.7 1.6
26/01:00am 27.5 - - - - SE 6 19 3 10 1008.5 1008.4 0.6
26/12:30am 27.8 - - - - SSE 6 9 3 5 1008.7 1008.6 0.0
26/12:00am 27.7 - - - - SSE 6 9 3 5 1008.9 1008.8 0.0
 
Date/Time
EST
Temp
°C
App
Temp
°C
Dew
Point
°C
Rel
Hum
%
Delta-T
°C
Wind Press
QNH
hPa
Press
MSL
hPa
Rain since
9am
mm
Dir  Spd
km/h
Gust
km/h
Spd
kts
Gust
kts
25/11:30pm 28.3 - - - - SSE 6 11 3 6 1009.0 1008.9 0.0
25/11:00pm 28.3 - - - - SSE 6 7 3 4 1009.1 1009.0 0.0
25/10:30pm 28.3 - - - - SSE 7 11 4 6 1008.9 1008.8 0.0
25/10:00pm 28.2 - - - - SSE 6 7 3 4 1008.8 1008.7 0.0
25/09:30pm 28.4 - - - - SSE 6 9 3 5 1008.8 1008.7 0.0
25/09:00pm 28.4 - - - - SSE 4 7 2 4 1008.7 1008.6 0.0
25/08:30pm 28.5 - - - - SSE 4 9 2 5 1008.4 1008.3 0.0
25/08:00pm 28.6 - - - - SSE 6 9 3 5 1008.0 1007.9 0.0
25/07:30pm 28.6 - - - - SSE 6 9 3 5 1007.7 1007.6 0.0
25/07:00pm 28.5 - - - - SSE 4 6 2 3 1007.6 1007.5 0.0
25/06:30pm 28.8 - - - - SSE 4 9 2 5 1007.1 1007.0 0.0
25/06:00pm 29.1 - - - - SSE 4 7 2 4 1007.1 1007.0 0.0
25/05:30pm 29.6 - - - - SSE 6 7 3 4 1006.8 1006.7 0.0
25/05:00pm 30.4 - - - - SSE 4 7 2 4 1006.5 1006.4 0.0
25/04:30pm 32.2 - - - - SSE 4 7 2 4 1006.2 1006.1 0.0
25/04:00pm 32.2 - - - - SSE 4 7 2 4 1006.0 1005.9 0.0
25/03:30pm 33.1 - - - - SSE 4 7 2 4 1006.2 1006.1 0.0
25/03:00pm 33.1 - - - - SSE 4 7 2 4 1006.2 1006.1 0.0
25/02:30pm 33.6 - - - - SE 4 6 2 3 1006.6 1006.5 0.0
25/02:00pm 34.1 - - - - SSE 4 7 2 4 1007.2 1007.1 0.0
25/01:30pm 34.2 - - - - SE 4 7 2 4 1007.5 1007.4 0.0
25/01:00pm 35.2 - - - - SSE 4 7 2 4 1007.8 1007.7 0.0
25/12:30pm 34.8 - - - - SSE 4 7 2 4 1008.0 1007.9 0.0
25/12:00pm 34.2 - - - - SSE 4 11 2 6 1008.5 1008.4 0.0
25/11:30am 34.0 - - - - SSE 6 7 3 4 1008.9 1008.8 0.0
25/11:00am 33.5 - - - - SSE 4 7 2 4 1009.2 1009.1 0.0
25/10:30am 32.4 - - - - SSE 4 9 2 5 1009.5 1009.4 0.0
25/10:00am 32.3 - - - - SSE 6 9 3 5 1009.6 1009.5 0.0
25/09:30am 30.5 - - - - SSE 4 7 2 4 1009.4 1009.3 0.0
25/09:00am 30.9 - - - - SSE 6 9 3 5 1009.2 1009.1 0.0
25/08:30am 29.9 - - - - SSE 6 7 3 4 1008.9 1008.8 0.0
25/08:00am 29.1 - - - - SSE 6 7 3 4 1008.9 1008.8 0.0
25/07:30am 27.7 - - - - SSE 4 7 2 4 1008.6 1008.5 0.0
25/07:00am 27.1 - - - - SSE 6 9 3 5 1008.5 1008.4 0.0
25/06:30am 27.1 - - - - SSE 6 9 3 5 1008.2 1008.1 0.0
25/06:00am 27.0 - - - - SSE 6 9 3 5 1007.9 1007.8 0.0
25/05:30am 27.1 - - - - SSE 6 9 3 5 1007.9 1007.8 0.0
25/05:00am 27.1 - - - - SSE 6 9 3 5 1007.8 1007.7 0.0
25/04:30am 27.1 - - - - SSE 6 9 3 5 1007.9 1007.8 0.0
25/04:00am 27.1 - - - - SSE 6 13 3 7 1007.8 1007.7 0.0
25/03:30am 27.1 - - - - SSE 6 9 3 5 1007.8 1007.7 0.0
25/03:00am 27.4 - - - - SSE 6 9 3 5 1007.9 1007.8 0.0
25/02:30am 27.3 - - - - SSE 6 9 3 5 1008.1 1008.0 0.0
25/02:00am 27.4 - - - - SSE 6 9 3 5 1008.4 1008.3 0.0
25/01:30am 27.3 - - - - SSE 6 9 3 5 1008.7 1008.6 0.0
25/01:00am 27.3 - - - - SSE 6 11 3 6 1009.0 1008.9 0.0
25/12:30am 27.5 - - - - SSE 7 11 4 6 1009.1 1009.0 0.0
25/12:00am 27.8 - - - - SSE 7 11 4 6 1009.4 1009.3 0.0
 
Date/Time
EST
Temp
°C
App
Temp
°C
Dew
Point
°C
Rel
Hum
%
Delta-T
°C
Wind Press
QNH
hPa
Press
MSL
hPa
Rain since
9am
mm
Dir  Spd
km/h
Gust
km/h
Spd
kts
Gust
kts
24/11:30pm 28.0 - - - - SSE 6 9 3 5 1009.5 1009.4 0.0
24/11:00pm 27.9 - - - - SSE 6 11 3 6 1009.8 1009.7 0.0
24/10:30pm 27.8 - - - - SSE 6 9 3 5 1009.8 1009.7 0.0
24/10:00pm 27.9 - - - - SSE 6 9 3 5 1010.0 1009.9 0.0
24/09:30pm 27.9 - - - - SSE 6 9 3 5 1010.1 1010.0 0.0
24/09:00pm 28.0 - - - - SSE 4 9 2 5 1010.2 1010.1 0.0
24/08:30pm 28.0 - - - - SSE 6 9 3 5 1010.0 1009.9 0.0
24/08:00pm 27.9 - - - - SSE 4 7 2 4 1009.6 1009.5 0.0
24/07:30pm 28.1 - - - - SSE 6 9 3 5 1009.3 1009.2 0.0
24/07:00pm 28.1 - - - - SSE 4 11 2 6 1008.9 1008.8 0.0
24/06:30pm 28.3 - - - - SSE 6 9 3 5 1008.3 1008.2 0.0
24/06:00pm 28.9 - - - - SSE 6 11 3 6 1008.0 1007.9 0.0
24/05:30pm 29.8 - - - - SSE 6 11 3 6 1007.8 1007.7 0.0
24/05:00pm 31.2 - - - - SSE 6 11 3 6 1007.8 1007.7 0.0
24/04:30pm 31.7 - - - - SSE 6 9 3 5 1007.7 1007.6 0.0
24/04:00pm 32.9 - - - - SSE 6 9 3 5 1007.6 1007.5 0.0
24/03:30pm 33.4 - - - - SSE 6 9 3 5 1007.7 1007.6 0.0
24/03:00pm 33.9 - - - - SSE 6 11 3 6 1007.9 1007.8 0.0
24/02:30pm 34.2 - - - - SSE 6 9 3 5 1008.2 1008.1 0.0
24/02:00pm 34.6 - - - - SSE 6 11 3 6 1008.5 1008.4 0.0
24/01:30pm 33.7 - - - - SE 4 9 2 5 1008.9 1008.8 0.0
24/01:00pm 34.1 - - - - SSE 6 11 3 6 1009.3 1009.2 0.0
24/12:30pm 34.2 - - - - SSE 6 9 3 5 1009.5 1009.4 0.0
24/12:00pm 33.7 - - - - SSE 4 9 2 5 1009.9 1009.8 0.0
24/11:30am 33.2 - - - - SSE 6 11 3 6 1010.4 1010.3 0.0
24/11:00am 33.2 - - - - SSE 6 9 3 5 1010.8 1010.7 0.0
24/10:30am 32.3 - - - - SSE 6 9 3 5 1011.3 1011.2 0.0
24/10:00am 32.4 - - - - SSE 6 13 3 7 1011.3 1011.2 0.0
24/09:30am 31.7 - - - - SE 6 13 3 7 1011.0 1010.9 0.0
24/09:00am 30.9 - - - - SSE 6 11 3 6 1010.9 1010.8 0.0
24/08:30am 30.0 - - - - SE 6 13 3 7 1010.5 1010.4 0.0
24/08:00am 29.1 - - - - SSE 6 13 3 7 1010.4 1010.3 0.0
24/07:30am 27.6 - - - - SSE 6 11 3 6 1010.3 1010.2 0.0
24/07:00am 27.0 - - - - SSE 6 15 3 8 1010.2 1010.1 0.0
24/06:30am 26.9 - - - - SSE 6 13 3 7 1009.8 1009.7 0.0
24/06:00am 27.0 - - - - SSE 6 9 3 5 1009.5 1009.4 0.0
24/05:30am 27.0 - - - - SSE 6 9 3 5 1009.2 1009.1 0.0
24/05:00am 27.1 - - - - SSE 7 11 4 6 1009.0 1008.9 0.0
24/04:30am 27.2 - - - - SSE 6 9 3 5 1009.1 1009.0 0.0
24/04:00am 27.4 - - - - SSE 7 11 4 6 1009.3 1009.2 0.0
24/03:30am 27.2 - - - - SSE 6 9 3 5 1009.3 1009.2 0.0
24/03:00am 27.3 - - - - SSE 6 11 3 6 1009.4 1009.3 0.0
24/02:30am 27.4 - - - - SSE 6 11 3 6 1009.5 1009.4 0.0
24/02:00am 27.3 - - - - SSE 6 9 3 5 1009.6 1009.5 0.0
24/01:30am 27.4 - - - - SSE 7 11 4 6 1009.6 1009.5 0.0
24/01:00am 27.5 - - - - SSE 6 13 3 7 1009.8 1009.7 0.0
24/12:30am 27.5 - - - - SSE 6 13 3 7 1010.0 1009.9 0.0
24/12:00am 27.4 - - - - SSE 6 9 3 5 1010.0 1009.9 0.0
 
Date/Time
EST
Temp
°C
App
Temp
°C
Dew
Point
°C
Rel
Hum
%
Delta-T
°C
Wind Press
QNH
hPa
Press
MSL
hPa
Rain since
9am
mm
Dir  Spd
km/h
Gust
km/h
Spd
kts
Gust
kts
23/11:30pm 27.5 - - - - SSE 6 9 3 5 1010.3 1010.2 0.0
23/11:00pm 27.6 - - - - SSE 6 9 3 5 1010.6 1010.5 0.0
23/10:30pm 27.6 - - - - SSE 6 7 3 4 1010.8 1010.7 0.0
23/10:00pm 27.4 - - - - SSE 6 13 3 7 1010.8 1010.7 0.0

Other formats

Comma delimited format used in spreadsheet applications
http://www.bom.gov.au/fwo/IDQ60801/IDQ60801.94182.axf

JavaScript Object Notation format (JSON) in row-major order
http://www.bom.gov.au/fwo/IDQ60801/IDQ60801.94182.json

Data quality

Most of these data are generated automatically and are frequently updated. Quality checks on data are not normally performed. It is possible for incorrect values to appear. Refer to information at About Latest Weather Observations and please check the disclaimer before using these data.